Time;durP1;ratioP1;P1;durP2;ratioP2;P2;SDS_P1;SDS_P2;PMS_P1;PMS_P2;Temp;Humidity;BMP_temperature;BMP_pressure;BME280_temperature;BME280_humidity;BME280_pressure;Samples;Min_cycle;Max_cycle;Signal;HPM_P1;HPM_P2
2023/03/12 00:02:18;;;;;;;1.00;1.00;;;2.50;99.90;;;;;;5027523;28;20041;-62
2023/03/12 00:04:43;;;;;;;0.82;0.73;;;2.50;99.90;;;;;;5027045;28;20049;-62
2023/03/12 00:07:09;;;;;;;0.10;0.10;;;2.60;99.90;;;;;;5027783;28;20759;-62
2023/03/12 00:09:36;;;;;;;0.10;0.10;;;2.60;99.90;;;;;;5021909;28;20053;-62
2023/03/12 00:12:03;;;;;;;0.10;0.10;;;2.60;99.90;;;;;;5016619;28;20049;-61
2023/03/12 00:14:28;;;;;;;0.40;0.40;;;2.50;99.90;;;;;;5023876;28;20638;-62
2023/03/12 00:16:54;;;;;;;0.10;0.10;;;2.40;99.90;;;;;;5027217;28;20033;-62
2023/03/12 00:19:20;;;;;;;0.10;0.10;;;2.40;99.90;;;;;;5025991;28;20049;-62
2023/03/12 00:21:46;;;;;;;0.10;0.10;;;2.40;99.90;;;;;;5027673;28;20126;-62
2023/03/12 00:24:11;;;;;;;0.30;0.30;;;2.40;99.90;;;;;;5027184;28;20045;-62
2023/03/12 00:26:37;;;;;;;0.10;0.10;;;2.40;99.90;;;;;;5026382;28;20033;-62
2023/03/12 00:29:02;;;;;;;0.25;0.25;;;2.50;99.90;;;;;;5024626;28;20095;-62
2023/03/12 00:31:31;;;;;;;0.10;0.10;;;2.50;99.90;;;;;;5026444;28;20052;-62
2023/03/12 00:33:58;;;;;;;0.20;0.20;;;2.40;99.90;;;;;;5026998;28;20034;-62
2023/03/12 00:36:26;;;;;;;0.10;0.10;;;2.40;99.90;;;;;;5027250;28;20042;-62
2023/03/12 00:38:52;;;;;;;0.10;0.10;;;2.40;99.90;;;;;;5026499;28;20164;-61
2023/03/12 00:41:18;;;;;;;0.10;0.10;;;2.40;99.90;;;;;;5021106;28;20038;-62
2023/03/12 00:43:45;;;;;;;0.10;0.10;;;2.40;99.90;;;;;;5026001;28;20079;-62
2023/03/12 00:46:11;;;;;;;0.03;0.03;;;2.30;99.90;;;;;;5028389;28;20100;-62
2023/03/12 00:48:37;;;;;;;0.20;0.20;;;2.30;99.90;;;;;;5027863;28;20037;-62
2023/03/12 00:51:02;;;;;;;0.10;0.10;;;2.30;99.90;;;;;;5027437;28;20144;-62
2023/03/12 00:53:29;;;;;;;0.20;0.20;;;2.30;99.90;;;;;;5026750;28;20045;-62
2023/03/12 00:55:54;;;;;;;0.28;0.28;;;2.30;99.90;;;;;;5022654;28;20125;-62
2023/03/12 00:58:20;;;;;;;0.10;0.10;;;2.20;99.90;;;;;;5026836;28;20156;-62
2023/03/12 01:00:46;;;;;;;0.10;0.10;;;2.30;99.90;;;;;;5027607;28;20053;-62
2023/03/12 01:03:12;;;;;;;0.10;0.10;;;2.20;99.90;;;;;;5020698;28;20396;-61
2023/03/12 01:05:39;;;;;;;0.20;0.20;;;2.20;99.90;;;;;;5026764;28;20037;-62
2023/03/12 01:08:06;;;;;;;0.10;0.10;;;2.20;99.90;;;;;;5027765;28;20045;-62
2023/03/12 01:10:32;;;;;;;0.20;0.20;;;2.20;99.90;;;;;;5027897;28;20041;-62
2023/03/12 01:12:58;;;;;;;0.20;0.20;;;2.20;99.90;;;;;;5026335;28;20386;-61
2023/03/12 01:15:24;;;;;;;0.10;0.10;;;2.20;99.90;;;;;;5026478;28;20091;-62
2023/03/12 01:17:50;;;;;;;0.35;0.35;;;2.10;99.90;;;;;;5021133;28;20052;-62
2023/03/12 01:20:15;;;;;;;0.10;0.10;;;2.10;99.90;;;;;;5018676;28;20468;-62
2023/03/12 01:22:42;;;;;;;0.10;0.10;;;2.10;99.90;;;;;;5021129;28;20100;-62
2023/03/12 01:25:08;;;;;;;0.52;0.52;;;2.20;99.90;;;;;;5024608;28;20393;-62
2023/03/12 01:27:34;;;;;;;0.10;0.10;;;2.20;99.90;;;;;;5025886;28;20079;-62
2023/03/12 01:30:00;;;;;;;0.10;0.10;;;2.20;99.90;;;;;;5021867;28;20057;-62
2023/03/12 01:32:25;;;;;;;0.20;0.20;;;2.20;99.90;;;;;;5024067;28;20110;-61
2023/03/12 01:34:51;;;;;;;0.10;0.10;;;2.20;99.90;;;;;;5026465;28;20042;-62
2023/03/12 01:37:17;;;;;;;0.10;0.10;;;2.20;99.90;;;;;;5026525;28;20078;-62
2023/03/12 01:39:42;;;;;;;1.05;1.05;;;2.20;99.90;;;;;;5026502;28;20413;-62
2023/03/12 01:42:08;;;;;;;3.92;2.63;;;2.30;99.90;;;;;;5023996;28;20086;-62
2023/03/12 01:44:57;;;;;;;0.80;0.80;;;2.30;99.90;;;;;;5021655;28;20358;-62
2023/03/12 01:47:30;;;;;;;0.10;0.10;;;2.30;99.90;;;;;;5016530;28;20050;-62
2023/03/12 01:49:56;;;;;;;0.10;0.10;;;2.40;99.90;;;;;;5026895;28;20049;-62
2023/03/12 01:52:27;;;;;;;0.30;0.30;;;2.40;99.90;;;;;;5027685;28;20054;-62
2023/03/12 01:55:10;;;;;;;0.10;0.10;;;2.40;99.90;;;;;;5027152;28;20112;-62
2023/03/12 01:57:41;;;;;;;0.10;0.10;;;2.40;99.90;;;;;;5030376;28;20049;-62
2023/03/12 02:00:15;;;;;;;0.10;0.10;;;2.50;99.90;;;;;;5017919;28;20288;-62
2023/03/12 02:02:43;;;;;;;0.13;0.13;;;2.50;99.90;;;;;;5028033;28;20420;-62
2023/03/12 02:05:30;;;;;;;0.10;0.10;;;2.50;99.90;;;;;;5019761;28;20064;-62
2023/03/12 02:07:56;;;;;;;0.10;0.10;;;2.60;99.90;;;;;;5028870;28;20607;-62
2023/03/12 02:10:22;;;;;;;0.10;0.10;;;2.60;99.90;;;;;;5021937;28;20088;-62
2023/03/12 02:12:48;;;;;;;0.10;0.10;;;2.60;99.90;;;;;;5028652;28;20457;-62
2023/03/12 02:15:13;;;;;;;0.60;0.60;;;2.70;99.90;;;;;;5029185;28;20037;-62
2023/03/12 02:17:39;;;;;;;0.10;0.10;;;2.60;99.90;;;;;;5024905;28;20057;-62
2023/03/12 02:20:20;;;;;;;0.10;0.10;;;2.60;99.90;;;;;;5025351;28;20084;-62
2023/03/12 02:22:54;;;;;;;0.20;0.20;;;2.60;99.90;;;;;;5024610;28;20683;-62
2023/03/12 02:25:23;;;;;;;0.10;0.10;;;2.60;99.90;;;;;;5029573;28;20045;-62
2023/03/12 02:27:49;;;;;;;0.10;0.10;;;2.60;99.90;;;;;;5023062;28;20053;-61
2023/03/12 02:30:16;;;;;;;0.63;0.63;;;2.70;99.90;;;;;;5028325;28;20041;-62
2023/03/12 02:32:42;;;;;;;0.32;0.32;;;2.60;99.90;;;;;;5029043;28;20057;-62
2023/03/12 02:35:08;;;;;;;0.10;0.10;;;2.70;99.90;;;;;;5028111;28;20563;-62
2023/03/12 02:37:34;;;;;;;0.20;0.20;;;2.60;99.90;;;;;;5029416;28;20071;-62
2023/03/12 02:40:41;;;;;;;0.10;0.10;;;2.60;99.90;;;;;;5028828;28;20042;-61
2023/03/12 02:43:08;;;;;;;0.10;0.10;;;2.70;99.90;;;;;;5027343;28;20152;-62
2023/03/12 02:45:35;;;;;;;0.15;0.15;;;2.80;99.90;;;;;;5026430;28;20389;-62
2023/03/12 02:48:03;;;;;;;0.10;0.10;;;2.90;99.90;;;;;;5028225;28;20505;-62
2023/03/12 02:50:28;;;;;;;0.10;0.10;;;2.80;99.90;;;;;;5027117;28;20523;-61
2023/03/12 02:52:54;;;;;;;0.10;0.10;;;2.80;99.90;;;;;;5028433;28;20038;-62
2023/03/12 02:55:19;;;;;;;0.50;0.50;;;2.80;99.90;;;;;;5029187;28;20091;-62
2023/03/12 02:57:45;;;;;;;0.10;0.10;;;2.80;99.90;;;;;;5027028;28;20041;-61
2023/03/12 03:00:13;;;;;;;0.20;0.20;;;2.80;99.90;;;;;;5022310;28;20044;-62
2023/03/12 03:02:40;;;;;;;0.10;0.10;;;2.80;99.90;;;;;;5029335;28;20092;-62
2023/03/12 03:05:06;;;;;;;0.17;0.17;;;2.80;99.90;;;;;;5025250;28;20045;-62
2023/03/12 03:07:32;;;;;;;0.00;0.00;;;2.70;99.90;;;;;;5029225;28;20045;-62
2023/03/12 03:10:03;;;;;;;0.10;0.10;;;2.70;99.90;;;;;;5024624;28;20571;-62
2023/03/12 03:12:32;;;;;;;0.10;0.10;;;2.80;99.90;;;;;;5025315;28;20057;-62
2023/03/12 03:14:58;;;;;;;0.93;0.75;;;2.70;99.90;;;;;;5021480;28;20382;-62
2023/03/12 03:17:25;;;;;;;0.85;0.85;;;2.80;99.90;;;;;;5019399;28;20037;-61
2023/03/12 03:19:51;;;;;;;0.20;0.20;;;2.80;99.90;;;;;;5028308;28;20041;-62
2023/03/12 03:22:18;;;;;;;0.30;0.22;;;2.80;99.90;;;;;;5029392;28;20049;-62
2023/03/12 03:24:44;;;;;;;0.30;0.30;;;2.80;99.90;;;;;;5027274;28;20114;-62
2023/03/12 03:27:10;;;;;;;0.10;0.10;;;2.90;99.90;;;;;;5027978;28;20046;-62
2023/03/12 03:29:36;;;;;;;0.25;0.25;;;2.80;99.90;;;;;;5029043;28;20046;-62
2023/03/12 03:32:02;;;;;;;0.10;0.10;;;2.80;99.90;;;;;;5028334;28;20065;-62
2023/03/12 03:34:28;;;;;;;1.23;1.15;;;2.80;99.90;;;;;;5027825;28;20041;-62
2023/03/12 03:36:53;;;;;;;0.17;0.17;;;2.80;99.90;;;;;;5019617;28;20045;-62
2023/03/12 03:39:19;;;;;;;0.10;0.10;;;2.80;99.90;;;;;;5027934;28;20175;-61
2023/03/12 03:41:46;;;;;;;0.32;0.32;;;2.70;99.90;;;;;;5027382;28;20056;-62
2023/03/12 03:44:12;;;;;;;0.10;0.10;;;2.70;99.90;;;;;;5019301;28;20119;-62
2023/03/12 03:46:38;;;;;;;0.10;0.10;;;2.70;99.90;;;;;;5025052;28;20100;-62
2023/03/12 03:49:04;;;;;;;0.10;0.10;;;2.70;99.90;;;;;;5027462;28;20103;-62
2023/03/12 03:51:29;;;;;;;0.20;0.20;;;2.70;99.90;;;;;;5027737;28;20077;-62
2023/03/12 03:53:55;;;;;;;0.32;0.32;;;2.70;99.90;;;;;;5027689;28;20088;-62
2023/03/12 03:56:21;;;;;;;0.45;0.45;;;2.80;99.90;;;;;;5027023;28;20053;-62
2023/03/12 03:58:47;;;;;;;0.60;0.60;;;2.80;99.90;;;;;;5029598;28;20048;-62
2023/03/12 04:01:13;;;;;;;9.02;1.08;;;2.80;99.90;;;;;;5026739;28;20562;-62
2023/03/12 04:03:38;;;;;;;0.13;0.13;;;2.80;99.90;;;;;;5027917;28;20561;-62
2023/03/12 04:06:05;;;;;;;0.10;0.10;;;2.80;99.90;;;;;;5025849;28;20041;-62
2023/03/12 04:08:34;;;;;;;0.10;0.10;;;2.80;99.90;;;;;;5027565;28;20048;-62
2023/03/12 04:11:05;;;;;;;0.52;0.52;;;2.80;99.90;;;;;;5022023;28;20048;-62
2023/03/12 04:13:31;;;;;;;0.10;0.10;;;2.80;99.90;;;;;;5028762;28;20045;-62
2023/03/12 04:15:56;;;;;;;0.63;0.63;;;2.80;99.90;;;;;;5026694;28;20040;-62
2023/03/12 04:18:22;;;;;;;0.10;0.10;;;2.80;99.90;;;;;;5028031;28;20049;-62
2023/03/12 04:20:47;;;;;;;0.30;0.30;;;2.80;99.90;;;;;;5026136;28;20044;-62
2023/03/12 04:23:13;;;;;;;0.10;0.10;;;2.80;99.90;;;;;;5027137;28;20042;-62
2023/03/12 04:25:38;;;;;;;0.10;0.10;;;2.80;99.90;;;;;;5022302;28;20068;-62
2023/03/12 04:28:05;;;;;;;0.10;0.10;;;2.80;99.90;;;;;;5019128;28;20143;-62
2023/03/12 04:30:31;;;;;;;0.10;0.10;;;2.80;99.90;;;;;;5027488;28;20041;-62
2023/03/12 04:32:56;;;;;;;0.10;0.10;;;2.80;99.90;;;;;;5027370;28;20041;-62
2023/03/12 04:35:23;;;;;;;0.10;0.10;;;2.80;99.90;;;;;;5026475;28;20042;-62
2023/03/12 04:37:49;;;;;;;0.65;0.65;;;2.80;99.90;;;;;;5027386;28;20079;-62
2023/03/12 04:40:17;;;;;;;0.20;0.20;;;2.80;99.90;;;;;;5026615;28;20033;-62
2023/03/12 04:42:43;;;;;;;0.10;0.10;;;2.90;99.90;;;;;;5039225;28;20081;-62
2023/03/12 04:45:10;;;;;;;0.20;0.20;;;2.90;99.90;;;;;;5013143;28;20351;-62
2023/03/12 04:47:35;;;;;;;0.10;0.10;;;2.90;99.90;;;;;;5027038;28;20041;-62
2023/03/12 04:50:01;;;;;;;0.10;0.10;;;2.90;99.90;;;;;;5025349;28;20386;-62
2023/03/12 04:52:27;;;;;;;0.10;0.10;;;2.90;99.90;;;;;;5027087;28;20046;-62
2023/03/12 04:54:53;;;;;;;0.22;0.22;;;2.90;99.90;;;;;;5023803;28;20137;-62
2023/03/12 04:57:19;;;;;;;0.57;0.57;;;2.90;99.90;;;;;;5026445;28;20119;-62
2023/03/12 04:59:44;;;;;;;0.20;0.20;;;2.90;99.90;;;;;;5027271;28;20038;-62
2023/03/12 05:02:10;;;;;;;0.75;0.75;;;2.90;99.90;;;;;;5028093;28;20485;-62
2023/03/12 05:04:36;;;;;;;0.20;0.20;;;2.80;99.90;;;;;;5025145;28;20033;-62
2023/03/12 05:07:01;;;;;;;0.20;0.20;;;2.90;99.90;;;;;;5027336;28;20045;-62
2023/03/12 05:09:27;;;;;;;0.10;0.10;;;2.90;99.90;;;;;;5027439;28;20045;-62
2023/03/12 05:11:53;;;;;;;0.50;0.50;;;2.90;99.90;;;;;;5021978;28;20073;-62
2023/03/12 05:14:18;;;;;;;0.10;0.10;;;2.80;99.90;;;;;;5023471;28;20045;-62
2023/03/12 05:16:44;;;;;;;0.20;0.20;;;2.90;99.90;;;;;;5019898;28;20049;-62
2023/03/12 05:19:10;;;;;;;0.17;0.17;;;2.90;99.90;;;;;;5022437;28;20636;-62
2023/03/12 05:21:35;;;;;;;0.10;0.10;;;2.90;99.90;;;;;;5026193;28;20488;-62
2023/03/12 05:24:01;;;;;;;0.40;0.40;;;2.80;99.90;;;;;;5026955;28;20033;-62
2023/03/12 05:26:30;;;;;;;0.50;0.50;;;2.80;99.90;;;;;;5027201;28;20071;-62
2023/03/12 05:28:56;;;;;;;1.58;1.48;;;3.00;99.90;;;;;;5027846;28;20664;-62
2023/03/12 05:31:22;;;;;;;0.10;0.10;;;2.90;99.90;;;;;;5019972;28;20050;-62
2023/03/12 05:33:48;;;;;;;0.10;0.10;;;2.90;99.90;;;;;;5028736;28;20195;-62
2023/03/12 05:36:16;;;;;;;0.75;0.75;;;3.00;99.90;;;;;;5031754;28;20041;-62
2023/03/12 05:38:42;;;;;;;0.10;0.10;;;3.00;99.90;;;;;;5030066;28;20060;-62
2023/03/12 05:41:12;;;;;;;0.20;0.20;;;2.90;99.90;;;;;;5029849;28;20045;-62
2023/03/12 05:43:38;;;;;;;0.75;0.75;;;2.90;99.90;;;;;;5027782;28;20057;-62
2023/03/12 05:46:04;;;;;;;0.10;0.10;;;3.00;99.90;;;;;;5029345;28;20065;-62
2023/03/12 05:48:30;;;;;;;0.10;0.10;;;3.00;99.90;;;;;;5030374;28;20125;-62
2023/03/12 05:50:56;;;;;;;0.45;0.45;;;3.00;99.90;;;;;;5029083;28;20574;-62
2023/03/12 05:53:22;;;;;;;0.40;0.40;;;3.00;99.90;;;;;;5030436;28;20100;-62
2023/03/12 05:55:48;;;;;;;0.38;0.38;;;3.00;99.90;;;;;;5029609;28;20041;-62
2023/03/12 05:58:14;;;;;;;0.10;0.10;;;3.00;99.90;;;;;;5030927;28;20044;-62
2023/03/12 06:00:40;;;;;;;0.10;0.10;;;3.00;99.90;;;;;;5030870;28;20080;-62
2023/03/12 06:03:07;;;;;;;0.10;0.10;;;3.10;99.90;;;;;;5029677;28;20034;-62
2023/03/12 06:05:34;;;;;;;0.10;0.10;;;3.10;99.90;;;;;;5029085;28;20034;-62
2023/03/12 06:08:01;;;;;;;0.30;0.30;;;3.10;99.90;;;;;;5028432;28;20033;-62
2023/03/12 06:10:27;;;;;;;0.20;0.20;;;3.10;99.90;;;;;;5028105;28;20049;-62
2023/03/12 06:12:53;;;;;;;0.28;0.28;;;3.10;99.90;;;;;;5026426;28;20045;-62
2023/03/12 06:15:18;;;;;;;0.40;0.40;;;3.00;99.90;;;;;;5028789;28;20473;-62
2023/03/12 06:17:44;;;;;;;0.10;0.10;;;3.10;99.90;;;;;;5030024;28;20037;-62
2023/03/12 06:20:10;;;;;;;0.47;0.47;;;3.10;99.90;;;;;;5019404;28;20342;-62
2023/03/12 06:22:36;;;;;;;0.10;0.10;;;3.10;99.90;;;;;;5028472;28;20049;-62
2023/03/12 06:25:03;;;;;;;0.10;0.10;;;3.10;99.90;;;;;;5029348;28;20481;-62
2023/03/12 06:27:28;;;;;;;0.10;0.10;;;3.10;99.90;;;;;;5027953;28;20037;-62
2023/03/12 06:29:54;;;;;;;0.10;0.10;;;3.10;99.90;;;;;;5025911;28;20113;-62
2023/03/12 06:32:19;;;;;;;0.10;0.10;;;3.10;99.90;;;;;;5030124;28;20458;-62
2023/03/12 06:34:45;;;;;;;0.10;0.10;;;3.10;99.90;;;;;;5029444;28;20046;-62
2023/03/12 06:37:11;;;;;;;0.10;0.10;;;3.10;99.90;;;;;;5027618;28;20409;-62
2023/03/12 06:39:37;;;;;;;0.10;0.10;;;3.00;99.90;;;;;;5028701;28;20037;-63
2023/03/12 06:42:03;;;;;;;0.10;0.10;;;3.00;99.90;;;;;;5018741;28;20050;-62
2023/03/12 06:44:29;;;;;;;0.10;0.10;;;3.00;99.90;;;;;;5028377;28;20494;-62
2023/03/12 06:46:55;;;;;;;0.10;0.10;;;3.00;99.90;;;;;;5026262;28;20048;-62
2023/03/12 06:49:21;;;;;;;0.30;0.30;;;3.00;99.90;;;;;;5028875;28;20045;-62
2023/03/12 06:51:46;;;;;;;0.52;0.52;;;3.00;99.90;;;;;;5027504;28;20065;-62
2023/03/12 06:54:12;;;;;;;0.32;0.32;;;3.00;99.90;;;;;;5028653;28;20041;-63
2023/03/12 06:56:38;;;;;;;26.52;2.80;;;2.90;99.90;;;;;;5023417;28;20049;-62
2023/03/12 06:59:04;;;;;;;0.20;0.20;;;3.00;99.90;;;;;;5028897;28;20037;-62
2023/03/12 07:01:29;;;;;;;0.30;0.30;;;3.00;99.90;;;;;;5029999;28;20705;-63
2023/03/12 07:03:55;;;;;;;0.17;0.17;;;2.90;99.90;;;;;;5027844;28;20519;-63
2023/03/12 07:06:22;;;;;;;0.20;0.20;;;2.90;99.90;;;;;;5028049;28;20082;-62
2023/03/12 07:08:49;;;;;;;0.10;0.10;;;2.80;99.90;;;;;;5023454;28;20397;-62
2023/03/12 07:11:16;;;;;;;0.35;0.35;;;2.90;99.90;;;;;;5027334;28;20048;-62
2023/03/12 07:13:42;;;;;;;0.10;0.10;;;2.80;99.90;;;;;;5028129;28;20116;-62
2023/03/12 07:16:08;;;;;;;0.10;0.10;;;2.70;99.90;;;;;;5027948;28;20179;-62
2023/03/12 07:18:33;;;;;;;0.47;0.47;;;2.70;99.90;;;;;;5028646;28;20154;-63
2023/03/12 07:20:59;;;;;;;0.20;0.20;;;2.70;99.90;;;;;;5020880;28;20067;-62
2023/03/12 07:23:25;;;;;;;0.10;0.10;;;2.70;99.90;;;;;;5028777;28;20092;-62
2023/03/12 07:25:51;;;;;;;0.10;0.10;;;2.70;99.90;;;;;;5024389;28;20045;-62
2023/03/12 07:28:17;;;;;;;0.90;0.63;;;2.70;99.90;;;;;;5028833;28;20148;-62
2023/03/12 07:30:49;;;;;;;0.30;0.30;;;2.60;99.90;;;;;;5026105;28;20252;-62
2023/03/12 07:33:16;;;;;;;0.10;0.10;;;2.60;99.90;;;;;;5028648;28;20049;-62
2023/03/12 07:35:42;;;;;;;0.10;0.10;;;2.60;99.90;;;;;;5024352;28;20042;-62
2023/03/12 07:38:08;;;;;;;0.10;0.10;;;2.70;99.90;;;;;;5027528;28;20055;-62
2023/03/12 07:40:35;;;;;;;0.10;0.10;;;2.70;99.90;;;;;;5024626;28;20038;-62
2023/03/12 07:43:01;;;;;;;0.15;0.15;;;2.60;99.90;;;;;;5027281;28;20041;-63
2023/03/12 07:45:26;;;;;;;0.10;0.10;;;2.60;99.90;;;;;;5026719;28;20037;-63
2023/03/12 07:47:52;;;;;;;0.20;0.20;;;2.60;99.90;;;;;;5028345;28;20398;-63
2023/03/12 07:50:18;;;;;;;0.50;0.50;;;2.70;99.90;;;;;;5027525;28;20076;-62
2023/03/12 07:52:44;;;;;;;0.50;0.50;;;2.70;99.90;;;;;;5026259;28;20049;-63
2023/03/12 07:55:10;;;;;;;0.25;0.25;;;2.70;99.90;;;;;;5027673;28;20098;-62
2023/03/12 07:57:36;;;;;;;0.20;0.20;;;2.70;99.90;;;;;;5027295;28;20128;-62
2023/03/12 08:00:06;;;;;;;0.10;0.10;;;2.70;99.90;;;;;;5028752;28;20119;-63
2023/03/12 08:02:32;;;;;;;0.17;0.17;;;2.70;99.90;;;;;;5023837;28;20627;-62
2023/03/12 08:04:57;;;;;;;0.13;0.13;;;2.70;99.90;;;;;;5014489;28;20584;-62
2023/03/12 08:07:23;;;;;;;0.10;0.10;;;2.70;99.90;;;;;;5027851;28;20071;-62
2023/03/12 08:09:48;;;;;;;0.52;0.52;;;2.70;99.90;;;;;;5027597;28;20053;-62
2023/03/12 08:12:14;;;;;;;0.38;0.38;;;2.70;99.90;;;;;;5018741;28;20047;-61
2023/03/12 08:14:40;;;;;;;0.10;0.10;;;2.70;99.90;;;;;;5027515;28;20386;-62
2023/03/12 08:17:05;;;;;;;0.10;0.10;;;2.80;99.90;;;;;;5028440;28;20404;-62
2023/03/12 08:19:31;;;;;;;0.10;0.10;;;2.70;99.90;;;;;;5021797;28;20045;-62
2023/03/12 08:21:57;;;;;;;0.90;0.90;;;2.80;99.90;;;;;;5021861;28;20492;-63
2023/03/12 08:24:23;;;;;;;0.10;0.10;;;2.80;99.90;;;;;;5023929;28;20145;-62
2023/03/12 08:26:48;;;;;;;1.27;1.10;;;2.80;99.90;;;;;;5024387;28;20050;-63
2023/03/12 08:29:15;;;;;;;0.80;0.35;;;2.70;99.90;;;;;;5025853;28;20099;-63
2023/03/12 08:31:42;;;;;;;0.10;0.10;;;2.70;99.90;;;;;;5030352;28;20049;-63
2023/03/12 08:34:07;;;;;;;4.07;1.08;;;2.70;99.90;;;;;;5030280;28;20046;-63
2023/03/12 08:36:34;;;;;;;0.50;0.50;;;2.80;99.90;;;;;;5026439;28;20048;-63
2023/03/12 08:39:00;;;;;;;0.25;0.25;;;2.80;99.90;;;;;;5032319;28;20130;-63
2023/03/12 08:41:26;;;;;;;0.10;0.10;;;2.80;99.90;;;;;;5023174;28;20492;-63
2023/03/12 08:43:51;;;;;;;0.13;0.13;;;2.80;99.90;;;;;;5026402;28;20060;-63
2023/03/12 08:46:17;;;;;;;0.10;0.10;;;2.90;99.90;;;;;;5027062;28;20393;-62
2023/03/12 08:48:42;;;;;;;0.45;0.45;;;2.90;99.90;;;;;;5026811;28;20179;-63
2023/03/12 08:51:08;;;;;;;0.10;0.10;;;2.90;99.90;;;;;;5026889;28;20140;-63
2023/03/12 08:53:35;;;;;;;0.68;0.68;;;2.90;99.90;;;;;;5016596;28;20052;-63
2023/03/12 08:56:02;;;;;;;1.48;1.38;;;2.90;99.90;;;;;;5027219;28;20056;-62
2023/03/12 08:58:28;;;;;;;0.10;0.10;;;2.90;99.90;;;;;;5024248;28;20041;-62
2023/03/12 09:00:54;;;;;;;1.88;1.00;;;2.90;99.90;;;;;;5027926;28;20046;-62
2023/03/12 09:03:21;;;;;;;0.22;0.22;;;3.00;99.90;;;;;;5027815;28;20042;-62
2023/03/12 09:05:48;;;;;;;0.17;0.17;;;2.90;99.90;;;;;;5025602;28;20359;-62
2023/03/12 09:08:14;;;;;;;0.10;0.10;;;3.00;99.90;;;;;;5027584;28;20037;-62
2023/03/12 09:10:40;;;;;;;0.10;0.10;;;3.00;99.90;;;;;;5026787;28;20045;-63
2023/03/12 09:13:06;;;;;;;0.10;0.10;;;3.00;99.90;;;;;;5026478;28;20049;-63
2023/03/12 09:15:32;;;;;;;0.47;0.47;;;3.10;99.90;;;;;;5026788;28;20099;-62
2023/03/12 09:17:58;;;;;;;0.20;0.20;;;3.10;99.90;;;;;;5027138;28;20042;-63
2023/03/12 09:20:24;;;;;;;0.40;0.40;;;3.00;99.90;;;;;;5026455;28;20452;-63
2023/03/12 09:22:50;;;;;;;0.10;0.10;;;3.10;99.90;;;;;;5027004;28;20452;-63
2023/03/12 09:25:16;;;;;;;0.10;0.10;;;3.10;99.90;;;;;;5026610;28;20069;-63
2023/03/12 09:27:45;;;;;;;0.10;0.10;;;3.10;99.90;;;;;;5026439;28;20540;-63
2023/03/12 09:30:17;;;;;;;0.10;0.10;;;3.10;99.90;;;;;;5027032;28;20500;-63
2023/03/12 09:32:45;;;;;;;0.10;0.10;;;3.10;99.90;;;;;;5026311;28;20051;-63
2023/03/12 09:35:13;;;;;;;0.20;0.20;;;3.10;99.90;;;;;;5027413;28;20069;-63
2023/03/12 09:37:39;;;;;;;0.10;0.10;;;3.10;99.90;;;;;;5027739;28;20053;-63
2023/03/12 09:40:08;;;;;;;0.10;0.10;;;3.20;99.90;;;;;;5026303;28;20049;-62
2023/03/12 09:42:46;;;;;;;0.43;0.43;;;3.20;99.90;;;;;;5024569;28;20049;-63
2023/03/12 09:45:17;;;;;;;0.10;0.10;;;3.20;99.90;;;;;;5011197;28;20049;-63
2023/03/12 09:47:55;;;;;;;0.10;0.10;;;3.30;99.90;;;;;;5026867;28;20042;-63
2023/03/12 09:50:29;;;;;;;0.13;0.13;;;3.30;99.90;;;;;;5027197;28;20077;-63
2023/03/12 09:53:01;;;;;;;0.13;0.13;;;3.30;99.90;;;;;;5026726;28;20135;-63
2023/03/12 09:55:35;;;;;;;0.17;0.17;;;3.40;99.90;;;;;;5027002;28;20033;-62
2023/03/12 09:58:01;;;;;;;0.40;0.40;;;3.40;99.90;;;;;;5024436;28;20740;-63
2023/03/12 10:00:32;;;;;;;0.52;0.52;;;3.50;99.90;;;;;;5026684;28;20073;-63
2023/03/12 10:03:23;;;;;;;0.43;0.43;;;3.50;99.90;;;;;;5020474;28;20060;-63
2023/03/12 10:06:03;;;;;;;0.28;0.28;;;3.60;99.90;;;;;;5027575;28;20156;-63
2023/03/12 10:08:38;;;;;;;2.72;2.08;;;3.50;99.90;;;;;;5014949;28;20090;-63
2023/03/12 10:11:07;;;;;;;0.10;0.10;;;3.60;99.90;;;;;;5024176;28;20428;-62
2023/03/12 10:13:35;;;;;;;0.15;0.15;;;3.60;99.90;;;;;;5025727;28;20119;-63
2023/03/12 10:16:12;;;;;;;0.10;0.10;;;3.60;99.90;;;;;;5019630;28;20037;-63
2023/03/12 10:19:02;;;;;;;0.10;0.10;;;3.70;99.90;;;;;;5023304;28;20076;-61
2023/03/12 10:21:59;;;;;;;0.10;0.10;;;3.70;99.90;;;;;;5024898;28;20073;-62
2023/03/12 10:24:56;;;;;;;0.10;0.10;;;3.70;99.90;;;;;;5019923;28;20505;-62
2023/03/12 10:27:27;;;;;;;0.20;0.20;;;3.80;99.90;;;;;;5025817;28;20049;-62
2023/03/12 10:29:54;;;;;;;0.10;0.10;;;3.80;99.90;;;;;;5029922;28;20055;-62
2023/03/12 10:32:28;;;;;;;0.10;0.10;;;3.90;99.90;;;;;;5028084;28;20091;-62
2023/03/12 10:35:00;;;;;;;0.85;0.85;;;3.90;99.90;;;;;;5029710;28;20076;-62
2023/03/12 10:37:39;;;;;;;0.35;0.35;;;3.90;99.90;;;;;;5017926;28;20052;-62
2023/03/12 10:40:05;;;;;;;0.50;0.50;;;3.90;99.90;;;;;;5027821;28;20557;-61
2023/03/12 10:42:31;;;;;;;0.10;0.10;;;4.00;99.90;;;;;;5028523;28;20043;-61
2023/03/12 10:45:09;;;;;;;0.28;0.28;;;4.10;99.90;;;;;;5027187;28;20049;-61
2023/03/12 10:47:42;;;;;;;0.20;0.20;;;4.20;99.90;;;;;;5028858;28;20157;-61
2023/03/12 10:50:15;;;;;;;0.10;0.10;;;4.10;99.90;;;;;;5028627;28;20056;-62
2023/03/12 10:52:42;;;;;;;0.10;0.10;;;4.20;99.90;;;;;;5029923;28;20053;-62
2023/03/12 10:55:12;;;;;;;0.38;0.38;;;4.20;99.90;;;;;;5024583;28;20042;-62
2023/03/12 10:57:41;;;;;;;0.10;0.10;;;4.30;99.90;;;;;;5022597;28;20064;-62
2023/03/12 11:00:10;;;;;;;0.80;0.80;;;4.40;99.90;;;;;;5034426;28;20139;-62
2023/03/12 11:02:44;;;;;;;0.10;0.10;;;4.50;99.90;;;;;;5041622;28;20045;-62
2023/03/12 11:05:27;;;;;;;0.17;0.17;;;4.50;99.90;;;;;;5017943;28;20091;-62
2023/03/12 11:07:53;;;;;;;3.03;0.95;;;4.60;99.90;;;;;;5027851;28;20083;-62
2023/03/12 11:10:35;;;;;;;0.75;0.75;;;4.70;99.90;;;;;;5021405;28;20124;-63
2023/03/12 11:13:20;;;;;;;0.40;0.40;;;4.90;99.90;;;;;;5028356;28;20752;-62
2023/03/12 11:15:47;;;;;;;0.25;0.25;;;5.00;99.90;;;;;;5029031;28;20038;-63
2023/03/12 11:18:28;;;;;;;0.20;0.20;;;5.30;99.90;;;;;;5028711;28;20440;-62
2023/03/12 11:20:57;;;;;;;0.20;0.20;;;5.40;99.90;;;;;;5018871;28;20068;-62
2023/03/12 11:23:27;;;;;;;0.32;0.32;;;5.50;99.90;;;;;;5028140;28;20104;-63
2023/03/12 11:26:01;;;;;;;1.55;1.05;;;5.60;99.90;;;;;;5028103;28;20045;-63
2023/03/12 11:28:41;;;;;;;2.35;1.80;;;5.70;99.90;;;;;;5027922;28;20117;-62
2023/03/12 11:31:14;;;;;;;0.10;0.10;;;5.80;99.90;;;;;;5012253;28;20092;-62
2023/03/12 11:33:41;;;;;;;0.25;0.25;;;5.90;99.90;;;;;;5022600;28;20057;-62
2023/03/12 11:36:16;;;;;;;0.17;0.17;;;5.90;99.90;;;;;;5028546;28;20385;-63
2023/03/12 11:39:07;;;;;;;0.45;0.45;;;6.00;99.90;;;;;;5025195;28;20229;-63
2023/03/12 11:41:53;;;;;;;0.22;0.22;;;6.10;99.90;;;;;;5024156;28;20049;-62
2023/03/12 11:44:24;;;;;;;0.10;0.10;;;6.20;99.90;;;;;;5023846;28;20042;-62
2023/03/12 11:47:09;;;;;;;0.10;0.10;;;6.20;99.90;;;;;;5027987;28;20045;-62
2023/03/12 11:49:43;;;;;;;0.10;0.10;;;6.30;99.90;;;;;;5027983;28;20124;-62
2023/03/12 11:52:40;;;;;;;0.43;0.43;;;6.40;99.90;;;;;;5017697;28;20720;-61
2023/03/12 11:55:34;;;;;;;0.10;0.10;;;6.50;99.90;;;;;;5025606;28;20115;-62
2023/03/12 11:58:21;;;;;;;0.10;0.10;;;6.60;99.90;;;;;;5027023;28;20583;-62
2023/03/12 12:01:19;;;;;;;0.55;0.55;;;6.70;99.90;;;;;;5028801;28;20492;-62
2023/03/12 12:03:54;;;;;;;1.90;1.75;;;6.90;99.90;;;;;;5018967;28;20661;-62
2023/03/12 12:06:25;;;;;;;0.30;0.30;;;7.10;99.90;;;;;;5027124;28;20046;-62
2023/03/12 12:09:17;;;;;;;1.42;1.35;;;7.20;99.90;;;;;;5025382;28;20099;-62
2023/03/12 12:12:26;;;;;;;0.63;0.63;;;7.40;99.90;;;;;;5024673;28;20498;-63
2023/03/12 12:15:03;;;;;;;0.10;0.10;;;7.60;99.90;;;;;;5022346;28;20045;-62
2023/03/12 12:17:40;;;;;;;1.25;0.98;;;7.70;99.90;;;;;;5027327;28;20042;-63
2023/03/12 12:20:51;;;;;;;0.35;0.35;;;7.80;99.90;;;;;;5026769;28;20696;-63
2023/03/12 12:23:39;;;;;;;0.20;0.20;;;7.90;99.90;;;;;;5020164;28;20474;-62
2023/03/12 12:26:11;;;;;;;1.10;1.10;;;8.10;99.90;;;;;;5015482;28;20109;-62
2023/03/12 12:28:52;;;;;;;1.75;1.58;;;8.20;99.90;;;;;;5019574;28;20076;-62
2023/03/12 12:31:40;;;;;;;0.20;0.20;;;8.30;99.90;;;;;;5018233;28;20676;-62
2023/03/12 12:34:36;;;;;;;0.10;0.10;;;8.40;99.90;;;;;;5027913;28;20042;-62
2023/03/12 12:37:07;;;;;;;0.30;0.30;;;8.50;99.90;;;;;;5026245;28;20094;-63
2023/03/12 12:39:38;;;;;;;1.05;1.02;;;8.60;99.90;;;;;;5026829;28;20045;-63
2023/03/12 12:42:09;;;;;;;1.27;1.17;;;8.70;99.90;;;;;;5027549;28;20052;-63
2023/03/12 12:44:42;;;;;;;0.10;0.10;;;8.70;99.90;;;;;;5023363;28;20053;-63
2023/03/12 12:47:16;;;;;;;0.10;0.10;;;8.80;99.90;;;;;;5028332;28;20111;-63
2023/03/12 12:49:46;;;;;;;0.10;0.10;;;8.90;99.90;;;;;;5026278;28;20118;-62
2023/03/12 12:52:20;;;;;;;0.10;0.10;;;9.30;99.90;;;;;;5026514;28;20473;-62
2023/03/12 12:55:10;;;;;;;5.07;1.27;;;9.40;99.90;;;;;;5025273;28;20041;-62
2023/03/12 12:58:01;;;;;;;0.00;0.00;;;9.90;99.90;;;;;;5020308;28;20100;-63
2023/03/12 13:00:45;;;;;;;0.10;0.10;;;10.20;99.90;;;;;;5026653;28;20116;-63
2023/03/12 13:03:19;;;;;;;0.10;0.10;;;10.20;99.90;;;;;;5025836;28;20041;-63
2023/03/12 13:05:54;;;;;;;0.32;0.32;;;10.10;99.90;;;;;;5026533;28;20053;-63
2023/03/12 13:08:59;;;;;;;0.80;0.80;;;9.90;99.90;;;;;;5026784;28;20040;-63
2023/03/12 13:11:45;;;;;;;0.10;0.10;;;9.70;99.90;;;;;;5012937;28;20510;-63